Time;durP1;ratioP1;P1;durP2;ratioP2;P2;SDS_P1;SDS_P2;PMS_P1;PMS_P2;Temp;Humidity;BMP_temperature;BMP_pressure;BME280_temperature;BME280_humidity;BME280_pressure;Samples;Min_cycle;Max_cycle;Signal;HPM_P1;HPM_P2
2022/02/23 00:01:06;;;;;;;5.82;2.80;;;19.40;99.90;;;;;;4146662;28;20267;-79
2022/02/23 00:03:08;;;;;;;7.03;2.80;;;19.40;99.90;;;;;;4148209;28;20244;-79
2022/02/23 00:05:11;;;;;;;6.45;3.00;;;19.50;99.90;;;;;;4142531;28;20229;-79
2022/02/23 00:07:13;;;;;;;6.97;2.83;;;19.40;99.90;;;;;;4145888;28;20279;-79
2022/02/23 00:09:16;;;;;;;7.50;2.70;;;19.40;99.90;;;;;;4148554;28;20225;-79
2022/02/23 00:11:18;;;;;;;5.80;2.90;;;19.40;99.90;;;;;;4148674;28;20629;-79
2022/02/23 00:13:22;;;;;;;6.18;2.95;;;19.40;99.90;;;;;;4148479;28;20213;-79
2022/02/23 00:15:24;;;;;;;6.43;2.80;;;19.40;99.90;;;;;;4148472;28;20216;-79
2022/02/23 00:17:27;;;;;;;7.13;2.90;;;19.40;99.90;;;;;;4148415;28;20621;-79
2022/02/23 00:19:29;;;;;;;6.07;2.65;;;19.40;99.90;;;;;;4148568;28;20325;-79
2022/02/23 00:21:32;;;;;;;6.40;3.10;;;19.30;99.90;;;;;;4148383;28;20267;-79
2022/02/23 00:23:35;;;;;;;9.32;3.53;;;19.40;99.90;;;;;;4144847;28;20292;-79
2022/02/23 00:25:37;;;;;;;5.65;2.80;;;19.30;99.90;;;;;;4146819;28;20751;-79
2022/02/23 00:27:39;;;;;;;7.18;3.10;;;19.30;99.90;;;;;;4148345;28;20276;-78
2022/02/23 00:29:43;;;;;;;7.30;3.10;;;19.30;99.90;;;;;;4148190;28;20217;-78
2022/02/23 00:31:46;;;;;;;5.25;2.63;;;19.30;99.90;;;;;;4148080;28;20221;-78
2022/02/23 00:33:48;;;;;;;7.53;2.65;;;19.30;99.90;;;;;;4147785;28;20271;-78
2022/02/23 00:35:50;;;;;;;6.32;2.90;;;19.30;99.90;;;;;;4148334;28;20209;-78
2022/02/23 00:37:53;;;;;;;5.97;2.88;;;19.30;99.90;;;;;;4147619;28;20263;-78
2022/02/23 00:39:55;;;;;;;7.43;2.95;;;19.30;99.90;;;;;;4147637;28;20217;-78
2022/02/23 00:41:57;;;;;;;6.57;2.92;;;19.30;99.90;;;;;;4145022;28;20267;-78
2022/02/23 00:44:00;;;;;;;7.45;2.60;;;19.30;99.90;;;;;;4144366;28;20291;-78
2022/02/23 00:46:04;;;;;;;6.35;2.72;;;19.30;99.90;;;;;;4148104;28;20736;-78
2022/02/23 00:48:06;;;;;;;5.82;2.88;;;19.30;99.90;;;;;;4147880;28;20229;-78
2022/02/23 00:50:09;;;;;;;6.32;2.92;;;19.20;99.90;;;;;;4147846;28;20221;-78
2022/02/23 00:52:12;;;;;;;7.55;3.10;;;19.30;99.90;;;;;;4147717;28;20621;-78
2022/02/23 00:54:14;;;;;;;5.28;2.70;;;19.20;99.90;;;;;;4147323;28;20217;-78
2022/02/23 00:56:17;;;;;;;5.03;2.47;;;19.30;99.90;;;;;;4147647;28;20295;-78
2022/02/23 00:58:19;;;;;;;7.18;2.40;;;19.30;99.90;;;;;;4148005;28;20235;-78
2022/02/23 01:00:21;;;;;;;6.05;2.83;;;19.20;99.90;;;;;;4140937;28;20225;-78
2022/02/23 01:02:25;;;;;;;7.28;2.83;;;19.20;99.90;;;;;;4145152;28;20220;-78
2022/02/23 01:04:28;;;;;;;6.82;2.90;;;19.20;99.90;;;;;;4146181;28;20291;-78
2022/02/23 01:06:30;;;;;;;6.43;2.40;;;19.20;99.90;;;;;;4147745;28;20213;-78
2022/02/23 01:08:33;;;;;;;6.47;2.80;;;19.20;99.90;;;;;;4147888;28;20716;-78
2022/02/23 01:10:35;;;;;;;6.00;2.95;;;19.20;99.90;;;;;;4147393;28;20624;-78
2022/02/23 01:12:37;;;;;;;6.03;2.58;;;19.20;99.90;;;;;;4145642;28;20269;-78
2022/02/23 01:14:40;;;;;;;8.30;3.38;;;19.20;99.90;;;;;;4147251;28;20217;-78
2022/02/23 01:16:43;;;;;;;5.55;2.78;;;19.20;99.90;;;;;;4147706;28;20197;-78
2022/02/23 01:18:47;;;;;;;5.88;2.90;;;19.20;99.90;;;;;;4142593;28;20225;-78
2022/02/23 01:20:49;;;;;;;5.28;2.40;;;19.10;99.90;;;;;;4145825;28;20217;-78
2022/02/23 01:22:55;;;;;;;6.55;2.70;;;19.20;99.90;;;;;;4147338;28;20210;-78
2022/02/23 01:24:58;;;;;;;5.25;2.75;;;19.10;99.90;;;;;;4146104;28;20233;-78
2022/02/23 01:27:01;;;;;;;7.57;2.80;;;19.10;99.90;;;;;;4146976;28;20259;-78
2022/02/23 01:29:04;;;;;;;7.72;2.65;;;19.10;99.90;;;;;;4147553;28;20233;-78
2022/02/23 01:31:06;;;;;;;4.90;2.22;;;19.10;99.90;;;;;;4147171;28;20212;-78
2022/02/23 01:33:08;;;;;;;5.97;2.80;;;19.10;99.90;;;;;;4147576;28;20217;-78
2022/02/23 01:35:12;;;;;;;8.07;2.83;;;19.10;99.90;;;;;;4144119;28;20252;-78
2022/02/23 01:37:15;;;;;;;5.85;2.67;;;19.10;99.90;;;;;;4142826;28;20275;-78
2022/02/23 01:39:17;;;;;;;4.57;2.63;;;19.10;99.90;;;;;;4144678;28;20212;-78
2022/02/23 01:41:19;;;;;;;6.18;2.40;;;19.10;99.90;;;;;;4147313;28;20217;-78
2022/02/23 01:43:22;;;;;;;6.93;2.35;;;19.10;99.90;;;;;;4146715;28;20630;-78
2022/02/23 01:45:25;;;;;;;5.38;2.58;;;19.10;99.90;;;;;;4147155;28;20221;-78
2022/02/23 01:47:27;;;;;;;5.60;2.42;;;19.10;99.90;;;;;;4147302;28;20217;-78
2022/02/23 01:49:30;;;;;;;7.40;2.50;;;19.00;99.90;;;;;;4147205;28;20565;-78
2022/02/23 01:51:34;;;;;;;4.63;2.38;;;19.10;99.90;;;;;;4147023;28;20209;-78
2022/02/23 01:53:36;;;;;;;5.93;2.75;;;19.00;99.90;;;;;;4146325;28;20221;-78
2022/02/23 01:55:38;;;;;;;6.43;2.28;;;19.00;99.90;;;;;;4141861;28;20213;-78
2022/02/23 01:57:41;;;;;;;7.20;2.88;;;19.00;99.90;;;;;;4146815;28;20265;-78
2022/02/23 01:59:43;;;;;;;5.97;2.65;;;19.00;99.90;;;;;;4146859;28;20740;-78
2022/02/23 02:01:45;;;;;;;6.97;3.03;;;19.00;99.90;;;;;;4146863;28;20225;-79
2022/02/23 02:03:48;;;;;;;6.57;2.80;;;19.00;99.90;;;;;;4146646;28;20245;-78
2022/02/23 02:05:50;;;;;;;6.00;2.72;;;19.00;99.90;;;;;;4146768;28;20225;-78
2022/02/23 02:07:54;;;;;;;4.53;2.45;;;19.00;99.90;;;;;;4146009;28;20263;-78
2022/02/23 02:09:56;;;;;;;5.05;2.13;;;18.90;99.90;;;;;;4147221;28;20240;-79
2022/02/23 02:11:59;;;;;;;3.83;2.40;;;18.90;99.90;;;;;;4146993;28;20682;-79
2022/02/23 02:14:01;;;;;;;6.65;2.58;;;19.00;99.90;;;;;;4140625;28;20214;-79
2022/02/23 02:16:04;;;;;;;5.28;2.50;;;18.90;99.90;;;;;;4144490;28;20216;-78
2022/02/23 02:18:06;;;;;;;6.35;2.20;;;18.90;99.90;;;;;;4146714;28;20217;-78
2022/02/23 02:20:10;;;;;;;5.13;2.40;;;18.90;99.90;;;;;;4146783;28;21054;-78
2022/02/23 02:22:13;;;;;;;5.70;2.38;;;18.90;99.90;;;;;;4146367;28;20221;-78
2022/02/23 02:24:16;;;;;;;5.50;2.70;;;18.90;99.90;;;;;;4146553;28;20241;-78
2022/02/23 02:26:18;;;;;;;5.32;2.45;;;18.90;99.90;;;;;;4146504;28;20225;-79
2022/02/23 02:28:20;;;;;;;7.03;2.17;;;18.90;99.90;;;;;;4146846;28;20225;-78
2022/02/23 02:30:23;;;;;;;7.07;3.00;;;18.90;99.90;;;;;;4145548;28;20263;-78
2022/02/23 02:32:26;;;;;;;5.57;2.72;;;18.90;99.90;;;;;;4142635;28;20220;-78
2022/02/23 02:34:29;;;;;;;6.57;2.58;;;18.90;99.90;;;;;;4146392;28;20221;-79
2022/02/23 02:36:31;;;;;;;5.90;2.45;;;18.90;99.90;;;;;;4146578;28;20617;-78
2022/02/23 02:38:36;;;;;;;7.03;2.80;;;18.90;99.90;;;;;;4146204;28;20208;-78
2022/02/23 02:40:38;;;;;;;5.72;2.38;;;18.90;99.90;;;;;;4146313;28;20213;-78
2022/02/23 02:42:40;;;;;;;4.88;2.20;;;18.90;99.90;;;;;;4146259;28;20732;-78
2022/02/23 02:44:43;;;;;;;5.40;2.60;;;18.90;99.90;;;;;;4146248;28;20237;-78
2022/02/23 02:46:46;;;;;;;6.78;2.67;;;18.90;99.90;;;;;;4146487;28;20217;-78
2022/02/23 02:48:48;;;;;;;6.43;2.50;;;18.90;99.90;;;;;;4146086;28;20221;-78
2022/02/23 02:50:50;;;;;;;4.70;2.28;;;18.80;99.90;;;;;;4140021;28;20665;-78
2022/02/23 02:52:53;;;;;;;8.32;2.70;;;18.80;99.90;;;;;;4143618;28;20263;-78
2022/02/23 02:54:56;;;;;;;6.25;2.35;;;18.80;99.90;;;;;;4144037;28;20638;-78
2022/02/23 02:56:59;;;;;;;5.75;2.35;;;18.80;99.90;;;;;;4143607;28;20283;-78
2022/02/23 02:59:02;;;;;;;4.88;2.33;;;18.80;99.90;;;;;;4144188;28;20217;-78
2022/02/23 03:01:06;;;;;;;4.22;2.30;;;18.80;99.90;;;;;;4141407;28;20716;-78
2022/02/23 03:03:08;;;;;;;5.68;2.60;;;18.80;99.90;;;;;;4142808;28;20625;-78
2022/02/23 03:05:11;;;;;;;6.00;2.70;;;18.80;99.90;;;;;;4143072;28;20232;-77
2022/02/23 03:07:13;;;;;;;4.10;2.28;;;18.80;99.90;;;;;;4142611;28;20208;-77
2022/02/23 03:09:15;;;;;;;4.00;1.90;;;18.80;99.90;;;;;;4141539;28;20229;-77
2022/02/23 03:11:19;;;;;;;5.22;2.38;;;18.80;99.90;;;;;;4143005;28;21795;-77
2022/02/23 03:13:22;;;;;;;5.40;2.08;;;18.80;99.90;;;;;;4141672;28;20275;-77
2022/02/23 03:15:24;;;;;;;4.65;2.50;;;18.80;99.90;;;;;;4143882;28;20259;-77
2022/02/23 03:17:27;;;;;;;5.88;2.70;;;18.80;99.90;;;;;;4143899;28;20243;-77
2022/02/23 03:19:29;;;;;;;6.22;2.58;;;18.70;99.90;;;;;;4148345;28;20687;-77
2022/02/23 03:21:32;;;;;;;5.63;2.50;;;18.80;99.90;;;;;;4148100;28;20213;-77
2022/02/23 03:23:35;;;;;;;5.18;2.65;;;18.80;99.90;;;;;;4145614;28;20263;-77
2022/02/23 03:25:37;;;;;;;6.50;2.30;;;18.70;99.90;;;;;;4148314;28;20283;-77
2022/02/23 03:27:41;;;;;;;5.43;2.50;;;18.70;99.90;;;;;;4148368;28;20216;-77
2022/02/23 03:29:43;;;;;;;6.13;2.45;;;18.70;99.90;;;;;;4149238;28;20597;-77
2022/02/23 03:31:45;;;;;;;6.45;2.53;;;18.70;99.90;;;;;;4150916;28;20212;-77
2022/02/23 03:33:48;;;;;;;4.80;2.35;;;18.70;99.90;;;;;;4151129;28;20217;-77
2022/02/23 03:35:50;;;;;;;6.10;2.22;;;18.70;99.90;;;;;;4150945;28;20264;-77
2022/02/23 03:37:52;;;;;;;4.45;2.42;;;18.70;99.90;;;;;;4150856;28;20220;-77
2022/02/23 03:39:55;;;;;;;3.55;2.10;;;18.70;99.90;;;;;;4150538;28;20216;-77
2022/02/23 03:41:57;;;;;;;6.05;2.45;;;18.70;99.90;;;;;;4150956;28;20274;-77
2022/02/23 03:44:01;;;;;;;5.45;2.47;;;18.70;99.90;;;;;;4150786;28;20221;-77
2022/02/23 03:46:03;;;;;;;6.35;2.42;;;18.70;99.90;;;;;;4149023;28;20298;-77
2022/02/23 03:48:06;;;;;;;3.42;1.98;;;18.60;99.90;;;;;;4147306;28;20225;-77
2022/02/23 03:50:09;;;;;;;5.65;2.60;;;18.60;99.90;;;;;;4150766;28;21016;-77
2022/02/23 03:52:12;;;;;;;7.30;2.50;;;18.70;99.90;;;;;;4151329;28;20213;-77
2022/02/23 03:54:14;;;;;;;5.18;2.42;;;18.70;99.90;;;;;;4150557;28;20267;-77
2022/02/23 03:58:36;;;;;;;6.25;2.67;;;18.60;99.90;;;;;;4150778;28;20204;-77
2022/02/23 04:00:40;;;;;;;6.32;2.42;;;18.60;99.90;;;;;;4150553;28;20272;-77
2022/02/23 04:02:43;;;;;;;5.78;2.55;;;18.60;99.90;;;;;;4150227;28;20221;-77
2022/02/23 04:04:45;;;;;;;5.93;2.50;;;18.60;99.90;;;;;;4150322;28;20241;-77
2022/02/23 04:06:49;;;;;;;3.80;1.83;;;18.60;99.90;;;;;;4150779;28;20236;-77
2022/02/23 04:08:51;;;;;;;6.63;2.40;;;18.60;99.90;;;;;;4150614;28;20340;-78
2022/02/23 04:10:54;;;;;;;5.15;2.33;;;18.60;99.90;;;;;;4150148;28;20221;-77
2022/02/23 04:12:56;;;;;;;5.13;2.55;;;18.60;99.90;;;;;;4150784;28;20290;-77
2022/02/23 04:14:58;;;;;;;6.07;2.42;;;18.60;99.90;;;;;;4150747;28;20217;-77
2022/02/23 04:17:02;;;;;;;4.30;2.42;;;18.60;99.90;;;;;;4151013;28;20666;-78
2022/02/23 04:19:06;;;;;;;7.15;2.58;;;18.60;99.90;;;;;;4150682;28;20228;-78
2022/02/23 04:21:08;;;;;;;6.25;2.50;;;18.60;99.90;;;;;;4150565;28;20225;-78
2022/02/23 04:23:10;;;;;;;4.90;2.33;;;18.60;99.90;;;;;;4151095;28;20275;-77
2022/02/23 04:25:13;;;;;;;6.75;2.78;;;18.60;99.90;;;;;;4150732;28;20263;-78
2022/02/23 04:27:15;;;;;;;6.90;2.60;;;18.60;99.90;;;;;;4151223;28;20217;-77
2022/02/23 04:29:18;;;;;;;6.07;2.53;;;18.60;99.90;;;;;;4149331;28;20225;-78
2022/02/23 04:31:20;;;;;;;4.93;2.40;;;18.50;99.90;;;;;;4148300;28;20205;-78
2022/02/23 04:33:24;;;;;;;5.20;2.35;;;18.50;99.90;;;;;;4148091;28;20221;-78
2022/02/23 04:35:26;;;;;;;6.28;3.05;;;18.50;99.90;;;;;;4147934;28;20205;-78
2022/02/23 04:37:29;;;;;;;6.35;2.70;;;18.50;99.90;;;;;;4147995;28;20662;-78
2022/02/23 04:39:32;;;;;;;5.95;2.95;;;18.50;99.90;;;;;;4148286;28;20339;-78
2022/02/23 04:41:34;;;;;;;6.00;2.40;;;18.50;99.90;;;;;;4148138;28;20229;-78
2022/02/23 04:43:36;;;;;;;4.97;2.10;;;18.50;99.90;;;;;;4148183;28;20225;-78
2022/02/23 04:45:39;;;;;;;5.55;2.17;;;18.50;99.90;;;;;;4147353;28;20787;-78
2022/02/23 04:47:41;;;;;;;6.18;2.50;;;18.50;99.90;;;;;;4146157;28;20229;-78
2022/02/23 04:49:45;;;;;;;6.07;2.53;;;18.50;99.90;;;;;;4143162;28;20712;-78
2022/02/23 04:51:47;;;;;;;4.50;2.35;;;18.50;99.90;;;;;;4148143;28;20262;-78
2022/02/23 04:53:50;;;;;;;7.95;2.75;;;18.50;99.90;;;;;;4148219;28;20222;-78
2022/02/23 04:55:52;;;;;;;5.57;2.20;;;18.50;99.90;;;;;;4148228;28;20616;-78
2022/02/23 04:57:55;;;;;;;5.68;2.83;;;18.50;99.90;;;;;;4147816;28;20221;-78
2022/02/23 04:59:57;;;;;;;7.32;2.53;;;18.50;99.90;;;;;;4147866;28;20217;-78
2022/02/23 05:01:59;;;;;;;6.55;2.60;;;18.50;99.90;;;;;;4144382;28;20275;-78
2022/02/23 05:04:02;;;;;;;5.82;2.53;;;18.50;99.90;;;;;;4147529;28;20245;-78
2022/02/23 05:06:07;;;;;;;4.68;2.10;;;18.40;99.90;;;;;;4144000;28;20264;-78
2022/02/23 05:08:09;;;;;;;5.05;2.30;;;18.50;99.90;;;;;;4142414;28;20217;-78
2022/02/23 05:10:12;;;;;;;4.93;2.35;;;18.50;99.90;;;;;;4147875;28;20600;-78
2022/02/23 05:12:14;;;;;;;4.55;2.22;;;18.40;99.90;;;;;;4144274;28;20248;-78
2022/02/23 05:14:17;;;;;;;4.43;2.00;;;18.40;99.90;;;;;;4147560;28;20268;-78
2022/02/23 05:16:21;;;;;;;5.65;2.47;;;18.40;99.90;;;;;;4147564;28;20236;-78
2022/02/23 05:18:23;;;;;;;4.68;2.30;;;18.40;99.90;;;;;;4147811;28;20213;-78
2022/02/23 05:20:27;;;;;;;5.93;2.30;;;18.40;99.90;;;;;;4147538;28;20275;-78
2022/02/23 05:22:31;;;;;;;4.75;2.40;;;18.40;99.90;;;;;;4147778;28;20674;-78
2022/02/23 05:24:34;;;;;;;6.40;2.40;;;18.40;99.90;;;;;;4143696;28;20217;-78
2022/02/23 05:26:36;;;;;;;6.95;2.65;;;18.40;99.90;;;;;;4144956;28;20260;-78
2022/02/23 05:28:38;;;;;;;6.93;2.70;;;18.40;99.90;;;;;;4147496;28;20733;-78
2022/02/23 05:30:41;;;;;;;4.57;2.40;;;18.40;99.90;;;;;;4147099;28;20574;-78
2022/02/23 05:32:43;;;;;;;6.18;2.65;;;18.40;99.90;;;;;;4147563;28;20213;-78
2022/02/23 05:34:46;;;;;;;6.30;2.50;;;18.40;99.90;;;;;;4147234;28;20221;-78
2022/02/23 05:36:48;;;;;;;5.25;2.35;;;18.40;99.90;;;;;;4147498;28;20271;-77
2022/02/23 05:38:52;;;;;;;5.13;2.60;;;18.30;99.90;;;;;;4146995;28;20265;-78
2022/02/23 05:40:55;;;;;;;5.55;2.30;;;18.30;99.90;;;;;;4146250;28;20565;-78
2022/02/23 05:42:57;;;;;;;4.35;2.00;;;18.40;99.90;;;;;;4146884;28;20629;-78
2022/02/23 05:45:00;;;;;;;5.15;2.67;;;18.40;99.90;;;;;;4143314;28;20225;-78
2022/02/23 05:47:03;;;;;;;5.38;2.17;;;18.30;99.90;;;;;;4144440;28;20245;-78
2022/02/23 05:49:05;;;;;;;4.43;2.30;;;18.30;99.90;;;;;;4144624;28;20218;-78
2022/02/23 05:51:26;;;;;;;5.15;2.38;;;18.30;99.90;;;;;;4143340;28;20803;-77
2022/02/23 05:53:29;;;;;;;4.88;2.20;;;18.30;99.90;;;;;;4144774;28;20216;-78
2022/02/23 05:55:32;;;;;;;6.15;2.63;;;18.10;99.90;;;;;;4144677;28;20208;-78
2022/02/23 05:57:35;;;;;;;6.00;2.67;;;17.90;99.90;;;;;;4144670;28;20848;-78
2022/02/23 05:59:37;;;;;;;5.72;2.17;;;18.00;99.90;;;;;;4144416;28;20860;-78
2022/02/23 06:01:40;;;;;;;4.93;2.38;;;18.10;99.90;;;;;;4144304;28;20824;-78
2022/02/23 06:03:42;;;;;;;5.38;2.42;;;18.20;99.90;;;;;;4143584;28;20241;-78
2022/02/23 06:05:44;;;;;;;8.50;2.60;;;18.20;99.90;;;;;;4143975;28;20271;-77
2022/02/23 06:07:47;;;;;;;5.07;2.30;;;18.30;99.90;;;;;;4143988;28;20235;-77
2022/02/23 06:09:49;;;;;;;5.65;2.45;;;18.30;99.90;;;;;;4143750;28;20280;-78
2022/02/23 06:11:53;;;;;;;5.93;2.50;;;18.30;99.90;;;;;;4144060;28;20213;-78
2022/02/23 06:13:55;;;;;;;5.60;2.30;;;18.40;99.90;;;;;;4143717;28;20282;-78
2022/02/23 06:15:57;;;;;;;4.97;2.28;;;18.40;99.90;;;;;;4143657;28;20272;-78
2022/02/23 06:18:00;;;;;;;5.10;2.40;;;18.40;99.90;;;;;;4143870;28;20217;-78
2022/02/23 06:20:02;;;;;;;5.30;2.10;;;18.40;99.90;;;;;;4142457;28;20268;-78
2022/02/23 06:22:05;;;;;;;4.30;2.45;;;18.40;99.90;;;;;;4142833;28;20267;-77
2022/02/23 06:24:08;;;;;;;6.18;2.63;;;18.40;99.90;;;;;;4144338;28;20221;-78
2022/02/23 06:26:11;;;;;;;6.10;2.15;;;18.40;99.90;;;;;;4143830;28;20350;-77
2022/02/23 06:28:14;;;;;;;4.65;2.08;;;18.40;99.90;;;;;;4144006;28;20225;-77
2022/02/23 06:30:17;;;;;;;4.63;2.20;;;18.40;99.90;;;;;;4143747;28;20634;-77
2022/02/23 06:32:19;;;;;;;6.22;2.20;;;18.40;99.90;;;;;;4143780;28;20271;-78
2022/02/23 06:34:21;;;;;;;4.28;1.92;;;18.40;99.90;;;;;;4143646;28;20213;-78
2022/02/23 06:36:24;;;;;;;6.05;2.30;;;18.40;99.90;;;;;;4143793;28;21147;-78
2022/02/23 06:38:27;;;;;;;4.28;2.25;;;18.40;99.90;;;;;;4141972;28;20213;-78
2022/02/23 06:40:29;;;;;;;6.75;2.38;;;18.50;99.90;;;;;;4143442;28;20271;-78
2022/02/23 06:42:32;;;;;;;4.90;2.13;;;18.40;99.90;;;;;;4143709;28;20220;-78
2022/02/23 06:44:36;;;;;;;5.30;2.40;;;18.40;99.90;;;;;;4142252;28;20209;-78
2022/02/23 06:46:38;;;;;;;5.88;2.25;;;18.50;99.90;;;;;;4142617;28;20379;-78
2022/02/23 06:48:41;;;;;;;3.65;2.10;;;18.40;99.90;;;;;;4142900;28;20272;-78
2022/02/23 06:50:43;;;;;;;5.13;2.53;;;18.50;99.90;;;;;;4142471;28;20225;-78
2022/02/23 06:52:46;;;;;;;6.18;2.50;;;18.40;99.90;;;;;;4143137;28;20221;-77
2022/02/23 06:54:48;;;;;;;6.13;2.88;;;18.50;99.90;;;;;;4144255;28;20221;-77
2022/02/23 06:56:51;;;;;;;5.13;2.30;;;18.50;99.90;;;;;;4144030;28;20220;-77
2022/02/23 06:58:53;;;;;;;4.35;2.20;;;18.50;99.90;;;;;;4143145;28;20228;-77
2022/02/23 07:00:57;;;;;;;4.65;2.17;;;18.50;99.90;;;;;;4142874;28;20256;-78
2022/02/23 07:03:00;;;;;;;4.95;1.88;;;18.50;99.90;;;;;;4143600;28;20221;-78
2022/02/23 07:05:02;;;;;;;7.05;2.17;;;18.50;99.90;;;;;;4143725;28;20232;-77
2022/02/23 07:07:05;;;;;;;6.85;2.55;;;18.50;99.90;;;;;;4143526;28;20248;-77
2022/02/23 07:09:07;;;;;;;6.07;2.55;;;18.50;99.90;;;;;;4143690;28;20221;-77
2022/02/23 07:11:10;;;;;;;4.00;2.05;;;18.50;99.90;;;;;;4143715;28;20221;-78
2022/02/23 07:13:12;;;;;;;4.90;2.30;;;18.50;99.90;;;;;;4144397;28;20229;-78
2022/02/23 07:15:15;;;;;;;7.32;2.47;;;18.50;99.90;;;;;;4144144;28;20267;-78
2022/02/23 07:17:18;;;;;;;5.03;2.13;;;18.50;99.90;;;;;;4144278;28;20272;-77
2022/02/23 07:19:24;;;;;;;7.47;2.53;;;18.50;99.90;;;;;;4143709;28;20231;-78
2022/02/23 07:21:26;;;;;;;3.50;1.90;;;18.50;99.90;;;;;;4143641;28;20721;-78
2022/02/23 07:23:29;;;;;;;7.25;2.55;;;18.50;99.90;;;;;;4143366;28;20630;-78
2022/02/23 07:25:31;;;;;;;7.32;2.83;;;18.60;99.90;;;;;;4143336;28;20221;-78
2022/02/23 07:27:34;;;;;;;5.35;2.10;;;18.50;99.90;;;;;;4143197;28;20294;-78
2022/02/23 07:29:37;;;;;;;4.60;2.20;;;18.50;99.90;;;;;;4143567;28;20287;-78
2022/02/23 07:31:40;;;;;;;6.93;2.10;;;18.60;99.90;;;;;;4143780;28;20229;-78
2022/02/23 07:33:44;;;;;;;6.75;2.40;;;18.60;99.90;;;;;;4142805;28;20263;-78
2022/02/23 07:35:47;;;;;;;4.32;2.40;;;18.60;99.90;;;;;;4143779;28;20225;-78
2022/02/23 07:37:52;;;;;;;6.95;2.53;;;18.60;99.90;;;;;;4144064;28;20686;-78
2022/02/23 07:40:01;;;;;;;6.88;2.70;;;18.60;99.90;;;;;;4143412;28;20217;-78
2022/02/23 07:42:03;;;;;;;6.63;2.60;;;18.60;99.90;;;;;;4142759;28;20267;-78
2022/02/23 07:44:06;;;;;;;5.47;2.25;;;18.60;99.90;;;;;;4143033;28;20701;-78
2022/02/23 07:46:12;;;;;;;5.85;2.45;;;18.60;99.90;;;;;;4143095;28;20217;-78
2022/02/23 07:48:14;;;;;;;4.50;2.40;;;18.60;99.90;;;;;;4142306;28;20237;-78
2022/02/23 07:50:19;;;;;;;6.90;2.33;;;18.60;99.90;;;;;;4143048;28;20271;-78
2022/02/23 07:52:22;;;;;;;5.95;2.80;;;18.60;99.90;;;;;;4142177;28;20216;-77
2022/02/23 07:54:25;;;;;;;9.77;2.83;;;18.50;99.90;;;;;;4142210;28;20225;-78
2022/02/23 07:56:28;;;;;;;9.63;2.90;;;18.70;99.90;;;;;;4138748;28;20214;-76
2022/02/23 07:58:30;;;;;;;5.63;2.80;;;18.70;99.90;;;;;;4141825;28;20221;-76
2022/02/23 08:00:33;;;;;;;10.25;2.92;;;18.80;99.90;;;;;;4139922;28;20209;-75
2022/02/23 08:02:36;;;;;;;8.05;2.42;;;18.80;99.90;;;;;;4142308;28;20217;-75
2022/02/23 08:04:38;;;;;;;4.72;2.40;;;18.90;99.90;;;;;;4140604;28;20229;-76
2022/02/23 08:06:42;;;;;;;6.28;2.30;;;19.00;99.90;;;;;;4144823;28;20244;-76
2022/02/23 08:08:44;;;;;;;7.28;3.00;;;19.00;99.90;;;;;;4147375;28;20241;-76
2022/02/23 08:10:47;;;;;;;7.88;2.90;;;19.00;99.90;;;;;;4144195;28;20303;-76
2022/02/23 08:12:53;;;;;;;6.68;2.80;;;19.00;99.90;;;;;;4145506;28;20228;-77
2022/02/23 08:14:56;;;;;;;9.82;3.13;;;19.10;99.90;;;;;;4146245;28;20248;-77
2022/02/23 08:19:31;;;;;;;6.78;2.78;;;19.30;99.90;;;;;;4143781;28;20905;-77
2022/02/23 08:21:33;;;;;;;6.35;3.13;;;19.40;99.90;;;;;;4144333;28;20275;-76
2022/02/23 08:23:37;;;;;;;7.85;2.95;;;19.60;99.90;;;;;;4144257;28;20275;-77
2022/02/23 08:25:40;;;;;;;7.15;2.97;;;19.70;99.90;;;;;;4144060;28;20213;-77
2022/02/23 08:27:44;;;;;;;7.00;2.92;;;19.80;99.90;;;;;;4141005;28;20245;-77
2022/02/23 08:29:47;;;;;;;5.80;2.50;;;19.80;99.60;;;;;;4142138;28;20224;-77
2022/02/23 08:31:50;;;;;;;5.18;2.85;;;19.80;99.20;;;;;;4144955;28;20213;-77
2022/02/23 08:33:54;;;;;;;9.93;2.92;;;19.90;99.30;;;;;;4145279;28;20217;-79
2022/02/23 08:35:56;;;;;;;6.57;2.80;;;20.00;99.30;;;;;;4143406;28;20275;-76
2022/02/23 08:37:59;;;;;;;6.47;2.97;;;20.00;99.00;;;;;;4141457;28;20402;-77
2022/02/23 08:40:03;;;;;;;8.80;2.85;;;20.00;99.10;;;;;;4143360;28;20280;-77
2022/02/23 08:42:08;;;;;;;11.93;3.28;;;20.10;98.90;;;;;;4143001;28;20964;-79
2022/02/23 08:44:11;;;;;;;8.52;3.13;;;20.00;99.20;;;;;;4141739;28;20225;-77
2022/02/23 08:46:13;;;;;;;8.55;3.40;;;20.00;99.10;;;;;;4143926;28;20217;-77
2022/02/23 08:48:16;;;;;;;7.50;3.00;;;20.20;99.30;;;;;;4140470;28;20327;-76
2022/02/23 08:50:18;;;;;;;10.85;3.35;;;20.20;98.90;;;;;;4142401;28;20218;-78
2022/02/23 08:52:20;;;;;;;9.00;3.30;;;20.10;98.80;;;;;;4146158;28;20205;-78
2022/02/23 08:54:24;;;;;;;7.72;3.17;;;20.20;98.60;;;;;;4144890;28;20221;-78
2022/02/23 08:56:28;;;;;;;8.50;2.97;;;20.30;98.90;;;;;;4143931;28;20240;-78
2022/02/23 08:58:30;;;;;;;9.85;3.13;;;20.30;98.60;;;;;;4144334;28;20218;-77
2022/02/23 09:00:33;;;;;;;7.57;3.25;;;20.30;99.00;;;;;;4141165;28;20879;-76
2022/02/23 09:02:35;;;;;;;8.60;3.33;;;20.30;98.50;;;;;;4143713;28;20244;-76
2022/02/23 09:04:37;;;;;;;7.72;3.30;;;20.30;98.80;;;;;;4140739;28;20230;-77
2022/02/23 09:06:41;;;;;;;5.90;3.00;;;20.30;98.80;;;;;;4140036;28;20692;-77
2022/02/23 09:08:44;;;;;;;11.20;3.20;;;20.30;98.30;;;;;;4145016;28;20241;-77
2022/02/23 09:10:46;;;;;;;5.53;3.03;;;20.30;98.80;;;;;;4141675;28;20281;-76
2022/02/23 09:12:50;;;;;;;8.98;3.00;;;20.40;98.90;;;;;;4141135;28;20229;-75
2022/02/23 09:14:52;;;;;;;8.70;2.72;;;20.50;98.30;;;;;;4145575;28;20217;-79
2022/02/23 09:16:54;;;;;;;10.38;3.58;;;20.50;98.50;;;;;;4142877;28;20572;-78
2022/02/23 09:18:57;;;;;;;7.65;3.22;;;20.50;99.00;;;;;;4143322;28;20264;-79
2022/02/23 09:20:59;;;;;;;9.73;3.25;;;20.50;98.20;;;;;;4146121;28;20252;-78
2022/02/23 09:23:01;;;;;;;11.57;3.17;;;20.30;98.80;;;;;;4145047;28;20728;-78
2022/02/23 09:25:04;;;;;;;8.93;3.25;;;20.30;98.40;;;;;;4146279;28;20303;-79
2022/02/23 09:27:07;;;;;;;9.43;3.60;;;20.40;98.00;;;;;;4146144;28;20217;-78
2022/02/23 09:29:11;;;;;;;14.60;3.80;;;20.40;98.90;;;;;;4141172;28;20299;-78
2022/02/23 09:31:14;;;;;;;9.35;3.10;;;20.60;98.00;;;;;;4141065;28;20323;-80
2022/02/23 09:33:17;;;;;;;9.70;3.60;;;20.60;98.20;;;;;;4148974;28;20221;-79
2022/02/23 09:35:19;;;;;;;10.23;3.42;;;20.60;98.30;;;;;;4145542;28;20267;-79
2022/02/23 09:37:22;;;;;;;5.47;3.15;;;20.60;98.40;;;;;;4148033;28;20276;-80
2022/02/23 09:39:25;;;;;;;6.78;3.28;;;20.60;98.00;;;;;;4148324;28;20217;-79
2022/02/23 09:41:28;;;;;;;7.47;2.80;;;20.60;98.20;;;;;;4147817;28;20213;-81
2022/02/23 09:43:30;;;;;;;8.25;3.58;;;20.60;99.10;;;;;;4139313;28;20721;-81
2022/02/23 09:45:37;;;;;;;6.57;3.45;;;20.60;98.90;;;;;;4147747;28;20279;-81
2022/02/23 09:47:40;;;;;;;10.07;4.15;;;20.70;99.00;;;;;;4148414;28;20213;-80
2022/02/23 09:49:44;;;;;;;7.75;3.33;;;20.80;99.00;;;;;;4148060;28;20240;-79
2022/02/23 09:51:47;;;;;;;9.93;3.67;;;20.80;98.70;;;;;;4148627;28;20197;-79
2022/02/23 09:53:55;;;;;;;10.07;3.63;;;20.80;98.30;;;;;;4147928;28;20221;-80
2022/02/23 09:55:59;;;;;;;8.68;4.00;;;20.80;98.70;;;;;;4148066;28;20283;-79
2022/02/23 09:58:02;;;;;;;8.77;3.47;;;20.70;98.40;;;;;;4148784;28;20217;-79
2022/02/23 10:00:06;;;;;;;8.27;3.35;;;20.80;99.50;;;;;;4146038;28;20286;-80
2022/02/23 10:02:12;;;;;;;8.52;3.50;;;20.80;98.30;;;;;;4148125;28;20724;-80
2022/02/23 10:04:17;;;;;;;10.57;3.67;;;20.80;98.20;;;;;;4146039;28;20244;-80
2022/02/23 10:06:21;;;;;;;9.18;3.83;;;20.90;98.00;;;;;;4148911;28;20255;-80
2022/02/23 10:08:32;;;;;;;9.10;3.70;;;20.90;98.40;;;;;;4154403;28;20228;-79
2022/02/23 10:10:36;;;;;;;10.60;3.42;;;20.90;98.30;;;;;;4149029;28;20740;-79
2022/02/23 10:12:41;;;;;;;10.00;3.88;;;20.80;98.50;;;;;;4142145;28;20217;-80
2022/02/23 10:14:44;;;;;;;9.07;3.45;;;20.70;98.20;;;;;;4147449;28;20260;-80
2022/02/23 10:16:48;;;;;;;10.05;3.83;;;20.70;98.70;;;;;;4142131;28;20268;-80
2022/02/23 10:19:04;;;;;;;8.88;3.55;;;20.80;98.70;;;;;;4146239;28;20283;-79
2022/02/23 10:21:07;;;;;;;8.60;3.55;;;20.80;98.30;;;;;;4142543;28;20212;-80
2022/02/23 10:23:17;;;;;;;7.82;3.08;;;20.90;98.50;;;;;;4146473;28;20213;-79
2022/02/23 10:25:24;;;;;;;6.95;3.75;;;20.90;98.50;;;;;;4145565;28;20217;-79
2022/02/23 10:27:32;;;;;;;7.57;3.30;;;20.90;97.80;;;;;;4144633;28;20908;-83
2022/02/23 10:29:37;;;;;;;8.60;3.63;;;20.80;97.90;;;;;;4145590;28;20236;-83
2022/02/23 10:31:50;;;;;;;10.75;3.45;;;20.80;97.70;;;;;;4144553;28;20287;-83
2022/02/23 10:33:53;;;;;;;5.88;3.13;;;20.90;98.80;;;;;;4141564;28;20738;-82
2022/02/23 10:35:58;;;;;;;8.60;3.60;;;20.90;98.40;;;;;;4137070;28;20221;-81
2022/02/23 10:38:00;;;;;;;7.45;3.13;;;21.00;98.30;;;;;;4143157;28;20348;-80
2022/02/23 10:40:03;;;;;;;13.73;3.70;;;21.00;98.50;;;;;;4143263;28;20217;-80
2022/02/23 10:42:06;;;;;;;12.95;4.00;;;21.00;98.20;;;;;;4146822;28;20251;-79
2022/02/23 10:44:10;;;;;;;10.52;3.60;;;21.00;97.90;;;;;;4147109;28;20640;-82